createdAt,value
2023-05-19T00:00:09.932Z,67.02
2023-05-19T00:02:39.794Z,66.77
2023-05-19T00:05:10.504Z,66.28
2023-05-19T00:07:40.677Z,65.49
2023-05-19T00:10:10.058Z,65.23
2023-05-19T00:12:38.956Z,65.76
2023-05-19T00:15:08.656Z,65.86
2023-05-19T00:17:38.449Z,65.91
2023-05-19T00:20:08.478Z,66.03
2023-05-19T00:22:37.076Z,66.08
2023-05-19T00:25:07.576Z,65.96
2023-05-19T00:27:35.583Z,65.72
2023-05-19T00:30:03.553Z,65.79
2023-05-19T00:32:31.587Z,65.91
2023-05-19T00:34:59.593Z,66.28
2023-05-19T00:37:27.870Z,66.41
2023-05-19T00:39:55.934Z,66.56
2023-05-19T00:42:25.728Z,67.00
2023-05-19T00:44:54.311Z,66.68
2023-05-19T00:47:23.281Z,67.42
2023-05-19T00:49:51.287Z,67.24
2023-05-19T00:52:19.407Z,66.19
2023-05-19T00:54:47.803Z,66.81
2023-05-19T00:57:16.216Z,66.18
2023-05-19T00:59:45.686Z,66.90
2023-05-19T01:02:13.728Z,66.38
2023-05-19T01:04:43.946Z,66.00
2023-05-19T01:07:12.685Z,66.77
2023-05-19T01:09:41.657Z,66.69
2023-05-19T01:12:10.335Z,66.86
2023-05-19T01:14:38.462Z,67.15
2023-05-19T01:17:16.005Z,66.70
2023-05-19T01:19:57.510Z,67.16
2023-05-19T01:22:42.943Z,67.84
2023-05-19T01:25:42.616Z,68.04
2023-05-19T01:28:40.591Z,68.21
2023-05-19T01:31:12.075Z,68.83
2023-05-19T01:33:42.412Z,68.60
2023-05-19T01:36:13.619Z,67.91
2023-05-19T01:38:41.839Z,68.37
2023-05-19T01:41:10.911Z,68.48
2023-05-19T01:43:39.778Z,68.09
2023-05-19T01:46:08.290Z,68.42
2023-05-19T01:48:38.323Z,69.06
2023-05-19T01:51:06.878Z,68.39
2023-05-19T01:53:34.942Z,68.08
2023-05-19T01:56:03.405Z,68.10
2023-05-19T01:58:39.392Z,68.32
2023-05-19T02:01:16.956Z,68.47
2023-05-19T02:04:01.947Z,68.75
2023-05-19T02:06:41.651Z,68.72
2023-05-19T02:09:16.842Z,69.17
2023-05-19T02:11:53.296Z,69.82
2023-05-19T02:14:25.661Z,69.56
2023-05-19T02:16:55.000Z,69.58
2023-05-19T02:19:26.251Z,69.96
2023-05-19T02:21:54.396Z,71.00
2023-05-19T02:24:23.088Z,70.34
2023-05-19T02:26:52.014Z,70.06
2023-05-19T02:29:20.559Z,70.07
2023-05-19T02:31:49.206Z,70.56
2023-05-19T02:34:17.278Z,70.71
2023-05-19T02:36:49.896Z,70.90
2023-05-19T02:39:17.985Z,71.46
2023-05-19T02:41:45.945Z,71.79
2023-05-19T02:44:14.095Z,71.23
2023-05-19T02:46:42.196Z,72.05
2023-05-19T02:49:11.542Z,72.13
2023-05-19T02:51:39.541Z,72.30
2023-05-19T02:54:08.929Z,72.26
2023-05-19T02:56:36.887Z,73.06
2023-05-19T02:59:04.875Z,72.61
2023-05-19T03:01:33.905Z,71.66
2023-05-19T03:04:02.303Z,71.83
2023-05-19T03:06:32.508Z,72.15
2023-05-19T03:09:00.515Z,71.09
2023-05-19T03:11:31.015Z,71.66
2023-05-19T03:13:59.829Z,71.58
2023-05-19T03:16:28.283Z,71.40
2023-05-19T03:18:56.569Z,71.62
2023-05-19T03:21:24.831Z,71.58
2023-05-19T03:23:52.796Z,73.87
2023-05-19T03:26:20.825Z,72.73
2023-05-19T03:28:50.148Z,71.98
2023-05-19T03:31:18.182Z,71.83
2023-05-19T03:33:46.231Z,74.54
2023-05-19T03:36:14.212Z,75.89
2023-05-19T03:38:42.251Z,76.22
2023-05-19T03:41:10.267Z,75.59
2023-05-19T03:43:38.244Z,75.88
2023-05-19T03:46:07.794Z,75.18
2023-05-19T03:48:35.875Z,76.50
2023-05-19T03:51:04.471Z,76.23
2023-05-19T03:53:32.424Z,76.16
2023-05-19T03:56:00.721Z,77.31
2023-05-19T03:58:30.091Z,76.46
2023-05-19T04:00:58.081Z,76.85
2023-05-19T04:03:28.665Z,76.97
2023-05-19T04:05:56.801Z,77.14
2023-05-19T04:08:24.825Z,76.36
2023-05-19T04:10:52.817Z,76.01
2023-05-19T04:13:20.794Z,75.65
2023-05-19T04:15:48.996Z,75.28
2023-05-19T04:18:17.016Z,75.83
2023-05-19T04:20:46.390Z,75.30
2023-05-19T04:23:16.998Z,74.71
2023-05-19T04:25:45.010Z,76.11
2023-05-19T04:28:13.032Z,75.64
2023-05-19T04:30:42.650Z,76.00
2023-05-19T04:33:10.904Z,75.94
2023-05-19T04:35:39.802Z,75.98
2023-05-19T04:38:10.070Z,75.12
2023-05-19T04:40:38.020Z,75.60
2023-05-19T04:43:07.409Z,75.17
2023-05-19T04:45:37.729Z,75.38
2023-05-19T04:48:06.236Z,75.26
2023-05-19T04:50:34.479Z,75.00
2023-05-19T04:53:02.619Z,75.55
2023-05-19T04:55:33.010Z,74.35
2023-05-19T04:58:07.807Z,74.25
2023-05-19T05:00:36.491Z,74.92
2023-05-19T05:03:06.018Z,73.80
2023-05-19T05:05:34.232Z,73.91
2023-05-19T05:08:03.295Z,73.85
2023-05-19T05:10:33.050Z,73.39
2023-05-19T05:13:02.270Z,72.77
2023-05-19T05:15:30.981Z,72.22
2023-05-19T05:17:59.088Z,71.29
2023-05-19T05:20:28.014Z,70.34
2023-05-19T05:22:57.772Z,70.25
2023-05-19T05:25:26.315Z,69.88
2023-05-19T05:27:55.896Z,69.44
2023-05-19T05:30:23.854Z,68.82
2023-05-19T05:32:52.094Z,67.79
2023-05-19T05:35:22.317Z,67.85
2023-05-19T05:37:50.316Z,67.62
2023-05-19T05:40:18.700Z,67.74
2023-05-19T05:42:46.810Z,66.50
2023-05-19T05:45:16.201Z,65.06
2023-05-19T05:47:44.727Z,65.12
2023-05-19T05:50:14.686Z,64.29
2023-05-19T05:52:46.892Z,62.56
2023-05-19T05:55:17.519Z,61.61
2023-05-19T05:57:45.584Z,58.72
2023-05-19T06:00:16.513Z,58.97
2023-05-19T06:02:47.846Z,58.98
2023-05-19T06:05:16.660Z,58.73
2023-05-19T06:07:45.069Z,58.30
2023-05-19T06:10:13.157Z,57.28
2023-05-19T06:12:41.352Z,57.48
2023-05-19T06:15:09.897Z,58.08
2023-05-19T06:17:39.499Z,56.85
2023-05-19T06:20:10.311Z,57.37
2023-05-19T06:22:38.462Z,56.92
2023-05-19T06:25:09.013Z,57.35
2023-05-19T06:27:37.354Z,58.17
2023-05-19T06:30:06.480Z,58.16
2023-05-19T06:32:34.579Z,59.13
2023-05-19T06:35:04.447Z,58.00
2023-05-19T06:37:32.797Z,58.98
2023-05-19T06:40:00.964Z,58.26
2023-05-19T06:42:31.742Z,59.32
2023-05-19T06:45:01.199Z,58.61
2023-05-19T06:47:29.358Z,57.87
2023-05-19T06:49:58.037Z,55.75
2023-05-19T06:52:27.388Z,55.14
2023-05-19T06:54:55.406Z,55.95
2023-05-19T06:57:23.501Z,54.40
2023-05-19T06:59:51.508Z,53.24
2023-05-19T07:02:19.550Z,52.20
2023-05-19T07:04:47.583Z,50.98
2023-05-19T07:07:15.751Z,50.44
2023-05-19T07:09:45.188Z,49.16
2023-05-19T07:12:13.220Z,51.53
2023-05-19T07:14:41.245Z,50.02
2023-05-19T07:17:09.462Z,51.19
2023-05-19T07:19:37.458Z,49.95
2023-05-19T07:22:05.984Z,50.36
2023-05-19T07:24:33.769Z,48.73
2023-05-19T07:27:04.520Z,49.24
2023-05-19T07:29:32.540Z,48.51
2023-05-19T07:32:03.409Z,48.10
2023-05-19T07:34:31.491Z,47.60
2023-05-19T07:36:59.477Z,47.93
2023-05-19T07:39:29.790Z,47.21
2023-05-19T07:41:59.543Z,48.04
2023-05-19T07:44:31.352Z,47.74
2023-05-19T07:46:59.334Z,46.63
2023-05-19T07:49:27.415Z,46.02
2023-05-19T07:51:55.448Z,45.81
2023-05-19T07:54:23.478Z,45.38
2023-05-19T07:56:51.824Z,44.46
2023-05-19T07:59:19.864Z,45.59
2023-05-19T08:01:52.330Z,45.44
2023-05-19T08:04:20.472Z,45.67
2023-05-19T08:06:48.587Z,46.85
2023-05-19T08:09:20.231Z,43.94
2023-05-19T08:11:48.380Z,40.81
2023-05-19T08:14:16.500Z,39.78
2023-05-19T08:16:46.185Z,42.81
2023-05-19T08:19:17.632Z,38.81
2023-05-19T08:21:45.667Z,36.52
2023-05-19T08:24:13.740Z,36.41
2023-05-19T08:26:41.736Z,36.30
2023-05-19T08:29:12.859Z,36.22
2023-05-19T08:31:41.034Z,34.97
2023-05-19T08:34:09.534Z,35.16
2023-05-19T08:36:39.141Z,34.61
2023-05-19T08:39:07.122Z,35.78
2023-05-19T08:41:37.579Z,34.96
2023-05-19T08:44:06.080Z,34.63
2023-05-19T08:46:34.261Z,34.33
2023-05-19T08:49:10.773Z,33.41
2023-05-19T08:51:45.815Z,33.34
2023-05-19T08:54:20.873Z,33.64
2023-05-19T08:56:49.620Z,33.35
2023-05-19T08:59:19.442Z,33.79
2023-05-19T09:01:48.429Z,33.39
2023-05-19T09:04:18.099Z,32.41
2023-05-19T09:06:53.076Z,32.54
2023-05-19T09:09:21.187Z,34.29
2023-05-19T09:11:49.397Z,32.91
2023-05-19T09:14:17.395Z,33.68
2023-05-19T09:16:49.976Z,33.41
2023-05-19T09:19:18.203Z,33.45
2023-05-19T09:21:46.529Z,32.73
2023-05-19T09:24:16.503Z,33.83
2023-05-19T09:26:47.634Z,33.17
2023-05-19T09:29:17.741Z,33.47
2023-05-19T09:31:50.765Z,33.38
2023-05-19T09:34:20.724Z,32.19
2023-05-19T09:36:50.746Z,32.17
2023-05-19T09:39:21.754Z,32.01
2023-05-19T09:41:53.675Z,29.69
2023-05-19T09:44:29.200Z,30.42
2023-05-19T09:46:58.300Z,32.63
2023-05-19T09:49:31.882Z,33.11
2023-05-19T09:52:01.863Z,31.69
2023-05-19T09:54:32.597Z,31.88
2023-05-19T09:57:01.896Z,31.81
2023-05-19T09:59:33.371Z,31.29
2023-05-19T10:02:05.144Z,29.83
2023-05-19T10:04:33.234Z,29.80
2023-05-19T10:07:05.778Z,30.48
2023-05-19T10:09:37.572Z,29.50
2023-05-19T10:12:06.716Z,29.24
2023-05-19T10:14:34.692Z,29.85
2023-05-19T10:17:02.809Z,28.50
2023-05-19T10:19:31.259Z,29.22
2023-05-19T10:21:59.233Z,29.01
2023-05-19T10:24:27.778Z,28.26
2023-05-19T10:27:02.605Z,29.57
2023-05-19T10:29:34.632Z,29.71
2023-05-19T10:32:09.228Z,28.96
2023-05-19T10:35:02.207Z,28.77
2023-05-19T10:37:38.672Z,29.02
2023-05-19T10:40:12.223Z,30.46
2023-05-19T10:42:49.391Z,30.09
2023-05-19T10:45:21.151Z,30.97
2023-05-19T10:47:51.620Z,28.93
2023-05-19T10:50:21.365Z,29.06
2023-05-19T10:52:55.711Z,30.31
2023-05-19T10:55:48.804Z,28.95
2023-05-19T10:58:38.243Z,28.61
2023-05-19T11:01:10.037Z,26.57
2023-05-19T11:03:48.794Z,28.27
2023-05-19T11:06:22.658Z,28.41
2023-05-19T11:08:55.561Z,29.42
2023-05-19T11:11:23.847Z,28.66
2023-05-19T11:13:53.778Z,28.65
2023-05-19T11:16:28.420Z,31.32
2023-05-19T11:18:57.501Z,28.21
2023-05-19T11:21:25.793Z,28.20
2023-05-19T11:23:54.005Z,28.49
2023-05-19T11:26:41.439Z,28.10
2023-05-19T11:29:11.968Z,27.75
2023-05-19T11:31:41.476Z,27.75
2023-05-19T11:34:10.101Z,27.45
2023-05-19T11:36:40.080Z,26.99
2023-05-19T11:39:10.623Z,26.83
2023-05-19T11:41:40.668Z,26.55
2023-05-19T11:44:12.886Z,27.94
2023-05-19T11:46:41.045Z,27.65
2023-05-19T11:49:09.238Z,27.33
2023-05-19T11:51:38.424Z,26.53
2023-05-19T11:54:06.659Z,25.86
2023-05-19T11:56:35.922Z,25.71
2023-05-19T11:59:03.982Z,25.77
2023-05-19T12:01:35.262Z,25.14
2023-05-19T12:04:03.361Z,27.94
2023-05-19T12:06:31.899Z,25.61
2023-05-19T12:09:00.078Z,24.92
2023-05-19T12:11:29.581Z,26.19
2023-05-19T12:14:00.178Z,24.63
2023-05-19T12:16:35.947Z,25.63
2023-05-19T12:19:06.817Z,25.68
2023-05-19T12:21:34.994Z,26.41
2023-05-19T12:24:03.445Z,23.85
2023-05-19T12:26:31.613Z,23.47
2023-05-19T12:29:00.059Z,24.00
2023-05-19T12:31:28.112Z,24.12
2023-05-19T12:33:57.658Z,24.87
2023-05-19T12:36:27.229Z,23.49
2023-05-19T12:38:56.066Z,24.67
2023-05-19T12:41:27.406Z,24.25
2023-05-19T12:43:56.089Z,23.84
2023-05-19T12:46:24.189Z,22.65
2023-05-19T12:48:52.313Z,23.36
2023-05-19T12:51:22.197Z,22.47
2023-05-19T12:53:51.687Z,23.85
2023-05-19T12:56:19.809Z,22.16
2023-05-19T12:58:47.839Z,22.18
2023-05-19T13:01:20.086Z,22.57
2023-05-19T13:03:48.659Z,23.68
2023-05-19T13:06:16.876Z,22.53
2023-05-19T13:08:48.509Z,21.82
2023-05-19T13:11:16.629Z,22.29
2023-05-19T13:13:44.655Z,22.14
2023-05-19T13:16:13.619Z,22.05
2023-05-19T13:18:44.284Z,22.60
2023-05-19T13:21:12.351Z,21.17
2023-05-19T13:23:40.387Z,22.21
2023-05-19T13:26:11.697Z,21.90
2023-05-19T13:28:39.687Z,20.34
2023-05-19T13:31:07.788Z,20.97
2023-05-19T13:33:35.648Z,20.92
2023-05-19T13:36:03.603Z,21.42
2023-05-19T13:38:31.728Z,21.89
2023-05-19T13:40:59.832Z,21.37
2023-05-19T13:43:29.422Z,22.20
2023-05-19T13:45:57.701Z,21.85
2023-05-19T13:48:25.620Z,21.72
2023-05-19T13:50:55.622Z,20.20
2023-05-19T13:53:23.655Z,20.47
2023-05-19T13:55:53.086Z,21.20
2023-05-19T13:58:21.062Z,20.57
2023-05-19T14:00:54.663Z,21.45
2023-05-19T14:03:22.824Z,22.02
2023-05-19T14:05:50.745Z,22.64
2023-05-19T14:08:18.872Z,20.48
2023-05-19T14:10:47.552Z,20.70
2023-05-19T14:13:31.018Z,18.98
2023-05-19T14:16:01.366Z,16.97
2023-05-19T14:18:29.421Z,15.42
2023-05-19T14:20:57.207Z,14.56
2023-05-19T14:23:25.275Z,13.63
2023-05-19T14:25:53.399Z,11.94
2023-05-19T14:28:21.414Z,12.06
2023-05-19T14:30:49.957Z,10.50
2023-05-19T14:33:20.586Z,10.38
2023-05-19T14:35:48.612Z,9.75
2023-05-19T14:38:18.742Z,9.67
2023-05-19T14:40:48.486Z,9.51
2023-05-19T14:43:16.571Z,8.76
2023-05-19T14:45:45.199Z,9.00
2023-05-19T14:48:13.420Z,8.44
2023-05-19T14:50:42.914Z,8.28
2023-05-19T14:53:11.367Z,8.57
2023-05-19T14:55:39.314Z,8.00
2023-05-19T14:58:15.940Z,7.92
2023-05-19T15:00:54.651Z,8.26
2023-05-19T15:03:23.318Z,8.93
2023-05-19T15:05:52.739Z,10.24
2023-05-19T15:08:21.041Z,9.85
2023-05-19T15:10:49.965Z,9.66
2023-05-19T15:13:18.967Z,9.45
2023-05-19T15:15:47.315Z,9.15
2023-05-19T15:18:17.875Z,9.42
2023-05-19T15:20:46.617Z,7.87
2023-05-19T15:23:16.023Z,8.55
2023-05-19T15:25:51.517Z,7.65
2023-05-19T15:28:20.637Z,7.76
2023-05-19T15:30:48.619Z,7.40
2023-05-19T15:33:16.810Z,8.23
2023-05-19T15:35:44.897Z,8.26
2023-05-19T15:38:13.137Z,8.25
2023-05-19T15:40:43.922Z,8.56
2023-05-19T15:43:11.945Z,8.61
2023-05-19T15:45:39.921Z,8.22
2023-05-19T15:48:08.583Z,8.07
2023-05-19T15:50:37.059Z,8.22
2023-05-19T15:53:06.957Z,8.28
2023-05-19T15:55:35.010Z,7.89
2023-05-19T15:58:04.389Z,8.92
2023-05-19T16:00:32.824Z,8.46
2023-05-19T16:03:01.299Z,8.01
2023-05-19T16:05:29.471Z,8.44
2023-05-19T16:07:57.548Z,8.70
2023-05-19T16:10:25.537Z,9.56
2023-05-19T16:12:53.859Z,10.33
2023-05-19T16:15:23.312Z,11.06
2023-05-19T16:17:51.330Z,12.43
2023-05-19T16:20:20.284Z,13.38
2023-05-19T16:22:48.337Z,15.04
2023-05-19T16:25:16.452Z,15.80
2023-05-19T16:27:44.499Z,17.38
2023-05-19T16:30:12.785Z,17.81
2023-05-19T16:32:42.190Z,18.41
2023-05-19T16:35:10.972Z,19.45
2023-05-19T16:37:39.215Z,19.29
2023-05-19T16:40:08.442Z,19.36
2023-05-19T16:42:36.390Z,19.95
2023-05-19T16:45:04.872Z,20.09
2023-05-19T16:47:33.129Z,20.76
2023-05-19T16:50:02.588Z,20.98
2023-05-19T16:52:30.677Z,20.77
2023-05-19T16:54:58.688Z,21.87
2023-05-19T16:57:26.689Z,21.31
2023-05-19T16:59:54.706Z,21.58
2023-05-19T17:02:22.834Z,22.27
2023-05-19T17:04:50.637Z,23.09
2023-05-19T17:07:20.053Z,22.70
2023-05-19T17:09:48.286Z,23.25
2023-05-19T17:12:16.093Z,23.25
2023-05-19T17:14:44.314Z,23.42
2023-05-19T17:17:12.135Z,23.76
2023-05-19T17:19:40.199Z,23.79
2023-05-19T17:22:10.561Z,24.21
2023-05-19T17:24:39.985Z,24.04
2023-05-19T17:27:08.460Z,24.52
2023-05-19T17:29:36.970Z,24.65
2023-05-19T17:32:05.491Z,25.14
2023-05-19T17:34:33.596Z,25.26
2023-05-19T17:37:01.644Z,26.03
2023-05-19T17:39:29.691Z,25.30
2023-05-19T17:41:59.090Z,25.62
2023-05-19T17:44:27.220Z,25.42
2023-05-19T17:46:55.448Z,25.89
2023-05-19T17:49:25.842Z,25.87
2023-05-19T17:51:54.600Z,26.01
2023-05-19T17:54:23.269Z,25.76
2023-05-19T17:56:52.606Z,24.34
2023-05-19T17:59:22.652Z,23.77
2023-05-19T18:01:51.479Z,23.55
2023-05-19T18:04:20.383Z,23.55
2023-05-19T18:06:52.033Z,22.64
2023-05-19T18:09:31.520Z,21.71
2023-05-19T18:12:02.216Z,21.02
2023-05-19T18:14:31.805Z,20.68
2023-05-19T18:16:59.878Z,21.21
2023-05-19T18:19:27.973Z,21.33
2023-05-19T18:21:56.228Z,20.84
2023-05-19T18:24:24.010Z,21.02
2023-05-19T18:26:52.013Z,21.06
2023-05-19T18:29:20.033Z,21.82
2023-05-19T18:31:49.436Z,22.49
2023-05-19T18:34:17.455Z,22.55
2023-05-19T18:36:45.525Z,22.89
2023-05-19T18:39:13.509Z,23.84
2023-05-19T18:41:42.840Z,24.56
2023-05-19T18:44:11.622Z,24.87
2023-05-19T18:46:39.622Z,25.19
2023-05-19T18:49:11.556Z,25.14
2023-05-19T18:51:39.855Z,26.22
2023-05-19T18:54:08.445Z,26.55
2023-05-19T18:56:36.596Z,26.94
2023-05-19T18:59:04.615Z,26.84
2023-05-19T19:01:32.671Z,27.87
2023-05-19T19:04:01.100Z,28.28
2023-05-19T19:06:31.401Z,28.14
2023-05-19T19:08:59.401Z,28.38
2023-05-19T19:11:27.536Z,28.95
2023-05-19T19:13:56.810Z,28.60
2023-05-19T19:16:24.967Z,28.76
2023-05-19T19:18:53.110Z,28.94
2023-05-19T19:21:24.022Z,28.76
2023-05-19T19:23:54.783Z,29.37
2023-05-19T19:26:25.100Z,29.97
2023-05-19T19:28:53.063Z,30.27
2023-05-19T19:31:21.290Z,30.69
2023-05-19T19:33:49.309Z,30.61
2023-05-19T19:36:17.552Z,31.04
2023-05-19T19:38:45.588Z,30.98
2023-05-19T19:41:14.981Z,31.23
2023-05-19T19:43:42.936Z,31.58
2023-05-19T19:46:11.249Z,32.27
2023-05-19T19:48:39.369Z,32.06
2023-05-19T19:51:07.407Z,31.82
2023-05-19T19:53:35.384Z,32.79
2023-05-19T19:56:05.243Z,32.76
2023-05-19T19:58:34.925Z,32.89
2023-05-19T20:01:04.521Z,32.63
2023-05-19T20:03:33.623Z,33.65
2023-05-19T20:06:01.738Z,34.66
2023-05-19T20:08:29.754Z,35.14
2023-05-19T20:10:57.757Z,35.45
2023-05-19T20:13:25.766Z,36.05
2023-05-19T20:15:55.244Z,35.67
2023-05-19T20:18:23.260Z,35.89
2023-05-19T20:20:51.286Z,35.82
2023-05-19T20:23:19.246Z,36.10
2023-05-19T20:25:54.772Z,35.64
2023-05-19T20:28:30.914Z,36.07
2023-05-19T20:31:00.351Z,36.95
2023-05-19T20:33:31.911Z,37.17
2023-05-19T20:35:59.853Z,37.69
2023-05-19T20:38:27.895Z,36.92
2023-05-19T20:40:55.959Z,38.03
2023-05-19T20:43:23.963Z,39.12
2023-05-19T20:45:52.475Z,39.08
2023-05-19T20:48:22.054Z,39.57
2023-05-19T20:50:50.081Z,39.90
2023-05-19T20:53:21.554Z,40.69
2023-05-19T20:55:49.875Z,40.41
2023-05-19T20:58:17.898Z,41.07
2023-05-19T21:00:46.158Z,41.48
2023-05-19T21:03:14.224Z,42.00
2023-05-19T21:05:43.864Z,42.48
2023-05-19T21:08:17.763Z,42.83
2023-05-19T21:10:45.874Z,43.15
2023-05-19T21:13:13.940Z,44.34
2023-05-19T21:15:41.959Z,44.40
2023-05-19T21:18:11.471Z,44.25
2023-05-19T21:20:39.648Z,45.29
2023-05-19T21:23:09.001Z,45.32
2023-05-19T21:25:37.037Z,45.47
2023-05-19T21:28:06.068Z,46.41
2023-05-19T21:30:34.303Z,47.13
2023-05-19T21:33:02.614Z,47.61
2023-05-19T21:35:30.647Z,48.32
2023-05-19T21:38:03.899Z,47.76
2023-05-19T21:40:38.781Z,48.20
2023-05-19T21:43:07.079Z,48.69
2023-05-19T21:45:35.080Z,49.42
2023-05-19T21:48:03.135Z,49.39
2023-05-19T21:50:31.369Z,49.73
2023-05-19T21:52:59.484Z,49.13
2023-05-19T21:55:27.532Z,49.20
2023-05-19T21:57:56.866Z,49.64
2023-05-19T22:00:25.826Z,49.15
2023-05-19T22:02:53.927Z,49.08
2023-05-19T22:05:22.039Z,49.48
2023-05-19T22:07:50.041Z,49.97
2023-05-19T22:10:18.099Z,50.93
2023-05-19T22:12:46.066Z,50.59
2023-05-19T22:15:15.996Z,51.47
2023-05-19T22:17:44.275Z,50.90
2023-05-19T22:20:13.171Z,51.68
2023-05-19T22:22:41.398Z,51.99
2023-05-19T22:25:09.867Z,51.12
2023-05-19T22:27:37.861Z,51.14
2023-05-19T22:30:07.275Z,51.65
2023-05-19T22:32:37.022Z,51.78
2023-05-19T22:35:06.640Z,51.65
2023-05-19T22:37:34.719Z,51.15
2023-05-19T22:40:02.747Z,52.04
2023-05-19T22:42:30.705Z,52.52
2023-05-19T22:44:58.758Z,52.37
2023-05-19T22:47:26.943Z,52.51
2023-05-19T22:49:57.113Z,53.08
2023-05-19T22:52:25.371Z,53.20
2023-05-19T22:54:53.541Z,53.32
2023-05-19T22:57:21.536Z,53.76
2023-05-19T22:59:49.526Z,54.69
2023-05-19T23:02:17.550Z,55.17
2023-05-19T23:04:45.617Z,54.29
2023-05-19T23:07:15.162Z,54.91
2023-05-19T23:09:43.160Z,55.55
2023-05-19T23:12:11.136Z,54.85
2023-05-19T23:14:39.140Z,55.39
2023-05-19T23:17:07.434Z,55.21
2023-05-19T23:19:36.589Z,56.51
2023-05-19T23:22:04.579Z,56.00
2023-05-19T23:24:33.948Z,56.25
2023-05-19T23:27:02.091Z,56.40
2023-05-19T23:29:30.119Z,56.87
2023-05-19T23:31:58.095Z,57.27
2023-05-19T23:34:26.092Z,57.91
2023-05-19T23:36:54.078Z,58.03
2023-05-19T23:39:25.187Z,57.69
2023-05-19T23:41:54.536Z,57.74
2023-05-19T23:44:22.536Z,58.04
2023-05-19T23:46:50.682Z,57.98
2023-05-19T23:49:19.799Z,58.24
2023-05-19T23:51:47.772Z,58.67
2023-05-19T23:54:15.828Z,58.98
2023-05-19T23:56:44.066Z,58.82
2023-05-19T23:59:13.416Z,58.72
